sensor_id;sensor_type;location;lat;lon;timestamp;P1;durP1;ratioP1;P2;durP2;ratioP2
31378;SDS011;61664;48.112;11.662;2023-02-28T00:01:30;2.80;;;2.13;;
31378;SDS011;61664;48.112;11.662;2023-02-28T00:03:58;4.57;;;2.20;;
31378;SDS011;61664;48.112;11.662;2023-02-28T00:06:25;2.55;;;2.22;;
31378;SDS011;61664;48.112;11.662;2023-02-28T00:08:52;4.05;;;2.50;;
31378;SDS011;61664;48.112;11.662;2023-02-28T00:11:19;2.58;;;2.05;;
31378;SDS011;61664;48.112;11.662;2023-02-28T00:13:47;1.90;;;1.80;;
31378;SDS011;61664;48.112;11.662;2023-02-28T00:16:15;1.90;;;1.80;;
31378;SDS011;61664;48.112;11.662;2023-02-28T00:18:48;3.20;;;2.90;;
31378;SDS011;61664;48.112;11.662;2023-02-28T00:21:16;3.17;;;2.53;;
31378;SDS011;61664;48.112;11.662;2023-02-28T00:23:44;2.58;;;2.38;;
31378;SDS011;61664;48.112;11.662;2023-02-28T00:26:11;2.55;;;1.83;;
31378;SDS011;61664;48.112;11.662;2023-02-28T00:28:38;2.17;;;1.98;;
31378;SDS011;61664;48.112;11.662;2023-02-28T00:31:05;2.22;;;1.92;;
31378;SDS011;61664;48.112;11.662;2023-02-28T00:33:32;2.70;;;2.35;;
31378;SDS011;61664;48.112;11.662;2023-02-28T00:36:03;3.03;;;2.67;;
31378;SDS011;61664;48.112;11.662;2023-02-28T00:38:35;2.85;;;2.55;;
31378;SDS011;61664;48.112;11.662;2023-02-28T00:41:04;2.47;;;2.13;;
31378;SDS011;61664;48.112;11.662;2023-02-28T00:43:32;3.13;;;2.45;;
31378;SDS011;61664;48.112;11.662;2023-02-28T00:46:00;2.70;;;2.50;;
31378;SDS011;61664;48.112;11.662;2023-02-28T00:48:28;8.18;;;2.25;;
31378;SDS011;61664;48.112;11.662;2023-02-28T00:50:55;2.53;;;2.17;;
31378;SDS011;61664;48.112;11.662;2023-02-28T00:53:22;2.63;;;2.42;;
31378;SDS011;61664;48.112;11.662;2023-02-28T00:55:49;3.08;;;2.60;;
31378;SDS011;61664;48.112;11.662;2023-02-28T00:58:16;3.50;;;2.60;;
31378;SDS011;61664;48.112;11.662;2023-02-28T01:00:43;2.17;;;2.08;;
31378;SDS011;61664;48.112;11.662;2023-02-28T01:03:18;2.63;;;2.40;;
31378;SDS011;61664;48.112;11.662;2023-02-28T01:05:46;2.90;;;2.70;;
31378;SDS011;61664;48.112;11.662;2023-02-28T01:08:13;3.00;;;2.70;;
31378;SDS011;61664;48.112;11.662;2023-02-28T01:10:41;2.15;;;2.05;;
31378;SDS011;61664;48.112;11.662;2023-02-28T01:13:08;2.92;;;2.50;;
31378;SDS011;61664;48.112;11.662;2023-02-28T01:15:36;2.92;;;2.67;;
31378;SDS011;61664;48.112;11.662;2023-02-28T01:18:14;3.17;;;2.22;;
31378;SDS011;61664;48.112;11.662;2023-02-28T01:20:41;3.05;;;2.75;;
31378;SDS011;61664;48.112;11.662;2023-02-28T01:23:08;3.10;;;2.70;;
31378;SDS011;61664;48.112;11.662;2023-02-28T01:25:35;2.88;;;2.65;;
31378;SDS011;61664;48.112;11.662;2023-02-28T01:28:03;3.72;;;3.00;;
31378;SDS011;61664;48.112;11.662;2023-02-28T01:30:32;4.57;;;3.30;;
31378;SDS011;61664;48.112;11.662;2023-02-28T01:32:59;3.03;;;2.83;;
31378;SDS011;61664;48.112;11.662;2023-02-28T01:35:26;6.43;;;3.13;;
31378;SDS011;61664;48.112;11.662;2023-02-28T01:37:53;3.95;;;3.55;;
31378;SDS011;61664;48.112;11.662;2023-02-28T01:40:20;4.05;;;2.72;;
31378;SDS011;61664;48.112;11.662;2023-02-28T01:42:48;2.38;;;2.17;;
31378;SDS011;61664;48.112;11.662;2023-02-28T01:45:27;3.25;;;2.63;;
31378;SDS011;61664;48.112;11.662;2023-02-28T01:48:02;3.40;;;2.72;;
31378;SDS011;61664;48.112;11.662;2023-02-28T01:50:35;3.55;;;3.25;;
31378;SDS011;61664;48.112;11.662;2023-02-28T01:53:13;3.03;;;2.42;;
31378;SDS011;61664;48.112;11.662;2023-02-28T01:55:46;3.03;;;2.75;;
31378;SDS011;61664;48.112;11.662;2023-02-28T01:58:18;2.70;;;2.50;;
31378;SDS011;61664;48.112;11.662;2023-02-28T02:00:46;2.88;;;2.60;;
31378;SDS011;61664;48.112;11.662;2023-02-28T02:03:15;2.83;;;2.63;;
31378;SDS011;61664;48.112;11.662;2023-02-28T02:05:46;2.55;;;2.35;;
31378;SDS011;61664;48.112;11.662;2023-02-28T02:08:15;3.75;;;3.10;;
31378;SDS011;61664;48.112;11.662;2023-02-28T02:10:52;2.38;;;2.17;;
31378;SDS011;61664;48.112;11.662;2023-02-28T02:25:27;2.72;;;1.90;;
31378;SDS011;61664;48.112;11.662;2023-02-28T02:28:21;2.63;;;2.42;;
31378;SDS011;61664;48.112;11.662;2023-02-28T02:40:20;2.92;;;2.72;;
31378;SDS011;61664;48.112;11.662;2023-02-28T02:43:01;2.55;;;2.38;;
31378;SDS011;61664;48.112;11.662;2023-02-28T02:46:06;4.68;;;2.72;;
31378;SDS011;61664;48.112;11.662;2023-02-28T02:48:52;2.25;;;2.05;;
31378;SDS011;61664;48.112;11.662;2023-02-28T02:51:23;2.40;;;2.20;;
31378;SDS011;61664;48.112;11.662;2023-02-28T02:56:44;2.25;;;2.05;;
31378;SDS011;61664;48.112;11.662;2023-02-28T02:59:16;2.90;;;2.67;;
31378;SDS011;61664;48.112;11.662;2023-02-28T03:02:10;2.78;;;2.50;;
31378;SDS011;61664;48.112;11.662;2023-02-28T03:04:42;3.78;;;2.58;;
31378;SDS011;61664;48.112;11.662;2023-02-28T03:07:18;2.28;;;2.10;;
31378;SDS011;61664;48.112;11.662;2023-02-28T03:09:51;2.72;;;2.45;;
31378;SDS011;61664;48.112;11.662;2023-02-28T03:12:21;4.22;;;2.33;;
31378;SDS011;61664;48.112;11.662;2023-02-28T03:20:34;3.30;;;3.00;;
31378;SDS011;61664;48.112;11.662;2023-02-28T03:25:59;3.35;;;2.72;;
31378;SDS011;61664;48.112;11.662;2023-02-28T03:28:54;3.15;;;2.85;;
31378;SDS011;61664;48.112;11.662;2023-02-28T03:31:48;2.72;;;2.53;;
31378;SDS011;61664;48.112;11.662;2023-02-28T03:36:59;3.22;;;2.85;;
31378;SDS011;61664;48.112;11.662;2023-02-28T03:39:40;3.45;;;3.15;;
31378;SDS011;61664;48.112;11.662;2023-02-28T03:42:15;2.63;;;2.38;;
31378;SDS011;61664;48.112;11.662;2023-02-28T03:44:51;3.45;;;3.15;;
31378;SDS011;61664;48.112;11.662;2023-02-28T03:47:25;3.10;;;2.80;;
31378;SDS011;61664;48.112;11.662;2023-02-28T03:50:23;3.15;;;2.85;;
31378;SDS011;61664;48.112;11.662;2023-02-28T03:53:06;2.80;;;2.55;;
31378;SDS011;61664;48.112;11.662;2023-02-28T03:55:44;2.72;;;2.53;;
31378;SDS011;61664;48.112;11.662;2023-02-28T03:58:39;3.92;;;3.55;;
31378;SDS011;61664;48.112;11.662;2023-02-28T04:01:32;4.35;;;3.22;;
31378;SDS011;61664;48.112;11.662;2023-02-28T04:04:04;3.13;;;2.92;;
31378;SDS011;61664;48.112;11.662;2023-02-28T04:06:32;3.45;;;3.13;;
31378;SDS011;61664;48.112;11.662;2023-02-28T04:09:00;3.92;;;3.30;;
31378;SDS011;61664;48.112;11.662;2023-02-28T04:11:32;3.35;;;3.05;;
31378;SDS011;61664;48.112;11.662;2023-02-28T04:14:05;3.60;;;2.95;;
31378;SDS011;61664;48.112;11.662;2023-02-28T04:16:35;4.05;;;3.05;;
31378;SDS011;61664;48.112;11.662;2023-02-28T04:19:06;4.38;;;3.35;;
31378;SDS011;61664;48.112;11.662;2023-02-28T04:21:39;4.60;;;4.07;;
31378;SDS011;61664;48.112;11.662;2023-02-28T04:24:10;4.20;;;3.80;;
31378;SDS011;61664;48.112;11.662;2023-02-28T04:26:43;4.90;;;4.05;;
31378;SDS011;61664;48.112;11.662;2023-02-28T04:29:14;4.18;;;3.80;;
31378;SDS011;61664;48.112;11.662;2023-02-28T04:31:50;4.57;;;4.22;;
31378;SDS011;61664;48.112;11.662;2023-02-28T04:34:19;4.50;;;4.10;;
31378;SDS011;61664;48.112;11.662;2023-02-28T04:36:47;4.80;;;4.10;;
31378;SDS011;61664;48.112;11.662;2023-02-28T04:39:37;4.25;;;3.65;;
31378;SDS011;61664;48.112;11.662;2023-02-28T04:42:05;4.68;;;4.28;;
31378;SDS011;61664;48.112;11.662;2023-02-28T04:44:32;4.35;;;3.92;;
31378;SDS011;61664;48.112;11.662;2023-02-28T04:46:59;5.35;;;4.57;;
31378;SDS011;61664;48.112;11.662;2023-02-28T04:49:26;6.38;;;4.70;;
31378;SDS011;61664;48.112;11.662;2023-02-28T04:51:53;5.72;;;4.45;;
31378;SDS011;61664;48.112;11.662;2023-02-28T04:54:20;5.72;;;4.40;;
31378;SDS011;61664;48.112;11.662;2023-02-28T04:56:47;5.28;;;4.78;;
31378;SDS011;61664;48.112;11.662;2023-02-28T04:59:16;5.15;;;4.65;;
31378;SDS011;61664;48.112;11.662;2023-02-28T05:01:45;5.78;;;4.63;;
31378;SDS011;61664;48.112;11.662;2023-02-28T05:04:15;5.22;;;4.70;;
31378;SDS011;61664;48.112;11.662;2023-02-28T05:06:42;5.68;;;5.05;;
31378;SDS011;61664;48.112;11.662;2023-02-28T05:09:10;5.60;;;4.93;;
31378;SDS011;61664;48.112;11.662;2023-02-28T05:11:39;7.55;;;5.80;;
31378;SDS011;61664;48.112;11.662;2023-02-28T05:14:11;6.60;;;4.65;;
31378;SDS011;61664;48.112;11.662;2023-02-28T05:16:40;7.65;;;5.32;;
31378;SDS011;61664;48.112;11.662;2023-02-28T05:19:07;6.63;;;5.30;;
31378;SDS011;61664;48.112;11.662;2023-02-28T05:21:35;7.50;;;5.30;;
31378;SDS011;61664;48.112;11.662;2023-02-28T05:24:07;7.38;;;5.32;;
31378;SDS011;61664;48.112;11.662;2023-02-28T05:26:37;8.68;;;6.10;;
31378;SDS011;61664;48.112;11.662;2023-02-28T05:29:08;7.25;;;6.13;;
31378;SDS011;61664;48.112;11.662;2023-02-28T05:31:36;7.00;;;5.57;;
31378;SDS011;61664;48.112;11.662;2023-02-28T05:34:04;7.18;;;6.05;;
31378;SDS011;61664;48.112;11.662;2023-02-28T05:36:31;8.00;;;6.45;;
31378;SDS011;61664;48.112;11.662;2023-02-28T05:38:59;8.02;;;6.28;;
31378;SDS011;61664;48.112;11.662;2023-02-28T05:41:26;9.85;;;6.70;;
31378;SDS011;61664;48.112;11.662;2023-02-28T05:43:53;10.25;;;6.95;;
31378;SDS011;61664;48.112;11.662;2023-02-28T05:46:20;10.75;;;7.00;;
31378;SDS011;61664;48.112;11.662;2023-02-28T05:48:47;8.05;;;6.03;;
31378;SDS011;61664;48.112;11.662;2023-02-28T05:51:15;8.07;;;6.85;;
31378;SDS011;61664;48.112;11.662;2023-02-28T05:53:43;10.65;;;7.47;;
31378;SDS011;61664;48.112;11.662;2023-02-28T05:56:10;8.05;;;6.47;;
31378;SDS011;61664;48.112;11.662;2023-02-28T05:58:37;8.90;;;6.85;;
31378;SDS011;61664;48.112;11.662;2023-02-28T06:01:24;9.57;;;7.03;;
31378;SDS011;61664;48.112;11.662;2023-02-28T06:04:00;11.55;;;7.93;;
31378;SDS011;61664;48.112;11.662;2023-02-28T06:06:29;10.13;;;7.75;;
31378;SDS011;61664;48.112;11.662;2023-02-28T06:08:56;9.60;;;7.47;;
31378;SDS011;61664;48.112;11.662;2023-02-28T06:11:23;12.25;;;8.38;;
31378;SDS011;61664;48.112;11.662;2023-02-28T06:13:54;12.93;;;8.95;;
31378;SDS011;61664;48.112;11.662;2023-02-28T06:16:27;10.80;;;8.05;;
31378;SDS011;61664;48.112;11.662;2023-02-28T06:18:59;11.82;;;8.48;;
31378;SDS011;61664;48.112;11.662;2023-02-28T06:21:29;12.07;;;8.50;;
31378;SDS011;61664;48.112;11.662;2023-02-28T06:23:58;10.52;;;7.97;;
31378;SDS011;61664;48.112;11.662;2023-02-28T06:26:25;14.57;;;9.63;;
31378;SDS011;61664;48.112;11.662;2023-02-28T06:28:53;12.27;;;8.55;;
31378;SDS011;61664;48.112;11.662;2023-02-28T06:31:20;13.90;;;9.55;;
31378;SDS011;61664;48.112;11.662;2023-02-28T06:33:49;11.63;;;8.32;;
31378;SDS011;61664;48.112;11.662;2023-02-28T06:36:16;12.02;;;9.13;;
31378;SDS011;61664;48.112;11.662;2023-02-28T06:38:44;12.77;;;8.98;;
31378;SDS011;61664;48.112;11.662;2023-02-28T06:41:11;12.57;;;9.43;;
31378;SDS011;61664;48.112;11.662;2023-02-28T06:43:39;13.27;;;9.30;;
31378;SDS011;61664;48.112;11.662;2023-02-28T06:46:10;14.23;;;9.38;;
31378;SDS011;61664;48.112;11.662;2023-02-28T06:48:40;14.75;;;9.43;;
31378;SDS011;61664;48.112;11.662;2023-02-28T06:51:13;14.02;;;9.77;;
31378;SDS011;61664;48.112;11.662;2023-02-28T06:53:46;13.18;;;9.40;;
31378;SDS011;61664;48.112;11.662;2023-02-28T06:56:13;12.15;;;9.02;;
31378;SDS011;61664;48.112;11.662;2023-02-28T06:58:45;14.57;;;9.82;;
31378;SDS011;61664;48.112;11.662;2023-02-28T07:01:14;16.20;;;9.25;;
31378;SDS011;61664;48.112;11.662;2023-02-28T07:03:43;16.67;;;10.23;;
31378;SDS011;61664;48.112;11.662;2023-02-28T07:06:09;11.80;;;9.05;;
31378;SDS011;61664;48.112;11.662;2023-02-28T07:08:36;12.32;;;9.43;;
31378;SDS011;61664;48.112;11.662;2023-02-28T07:11:04;14.15;;;9.75;;
31378;SDS011;61664;48.112;11.662;2023-02-28T07:13:31;15.63;;;9.75;;
31378;SDS011;61664;48.112;11.662;2023-02-28T07:15:59;14.40;;;9.35;;
31378;SDS011;61664;48.112;11.662;2023-02-28T07:18:30;13.85;;;9.25;;
31378;SDS011;61664;48.112;11.662;2023-02-28T07:21:01;14.30;;;9.30;;
31378;SDS011;61664;48.112;11.662;2023-02-28T07:23:34;11.95;;;9.20;;
31378;SDS011;61664;48.112;11.662;2023-02-28T07:26:05;13.63;;;9.30;;
31378;SDS011;61664;48.112;11.662;2023-02-28T07:28:33;18.02;;;8.80;;
31378;SDS011;61664;48.112;11.662;2023-02-28T07:31:03;14.30;;;9.50;;
31378;SDS011;61664;48.112;11.662;2023-02-28T07:33:32;13.55;;;9.27;;
31378;SDS011;61664;48.112;11.662;2023-02-28T07:36:04;15.25;;;10.73;;
31378;SDS011;61664;48.112;11.662;2023-02-28T07:38:42;11.63;;;9.32;;
31378;SDS011;61664;48.112;11.662;2023-02-28T07:41:14;13.80;;;9.50;;
31378;SDS011;61664;48.112;11.662;2023-02-28T07:43:46;13.52;;;9.32;;
31378;SDS011;61664;48.112;11.662;2023-02-28T07:46:14;13.90;;;10.75;;
31378;SDS011;61664;48.112;11.662;2023-02-28T07:48:43;16.50;;;11.02;;
31378;SDS011;61664;48.112;11.662;2023-02-28T07:51:11;14.10;;;10.73;;
31378;SDS011;61664;48.112;11.662;2023-02-28T07:53:38;14.75;;;10.55;;
31378;SDS011;61664;48.112;11.662;2023-02-28T07:56:05;14.73;;;10.43;;
31378;SDS011;61664;48.112;11.662;2023-02-28T07:58:33;17.00;;;10.70;;
31378;SDS011;61664;48.112;11.662;2023-02-28T08:01:07;14.00;;;9.93;;
31378;SDS011;61664;48.112;11.662;2023-02-28T08:03:36;13.90;;;10.27;;
31378;SDS011;61664;48.112;11.662;2023-02-28T08:06:04;16.02;;;10.70;;
31378;SDS011;61664;48.112;11.662;2023-02-28T08:08:33;13.23;;;10.25;;
31378;SDS011;61664;48.112;11.662;2023-02-28T08:11:01;14.30;;;10.00;;
31378;SDS011;61664;48.112;11.662;2023-02-28T08:13:29;16.02;;;10.57;;
31378;SDS011;61664;48.112;11.662;2023-02-28T08:15:57;15.50;;;10.48;;
31378;SDS011;61664;48.112;11.662;2023-02-28T08:18:24;13.95;;;9.85;;
31378;SDS011;61664;48.112;11.662;2023-02-28T08:20:51;16.23;;;10.30;;
31378;SDS011;61664;48.112;11.662;2023-02-28T08:23:18;16.55;;;10.77;;
31378;SDS011;61664;48.112;11.662;2023-02-28T08:25:52;14.60;;;10.15;;
31378;SDS011;61664;48.112;11.662;2023-02-28T08:28:22;11.82;;;9.48;;
31378;SDS011;61664;48.112;11.662;2023-02-28T08:30:52;12.65;;;9.45;;
31378;SDS011;61664;48.112;11.662;2023-02-28T08:33:20;15.60;;;10.20;;
31378;SDS011;61664;48.112;11.662;2023-02-28T08:35:51;14.95;;;10.30;;
31378;SDS011;61664;48.112;11.662;2023-02-28T08:38:20;13.50;;;9.98;;
31378;SDS011;61664;48.112;11.662;2023-02-28T08:40:48;13.40;;;9.60;;
31378;SDS011;61664;48.112;11.662;2023-02-28T08:43:15;13.45;;;9.52;;
31378;SDS011;61664;48.112;11.662;2023-02-28T08:45:42;12.55;;;9.20;;
31378;SDS011;61664;48.112;11.662;2023-02-28T08:48:09;12.73;;;10.80;;
31378;SDS011;61664;48.112;11.662;2023-02-28T08:50:36;15.73;;;10.88;;
31378;SDS011;61664;48.112;11.662;2023-02-28T08:53:05;12.63;;;9.85;;
31378;SDS011;61664;48.112;11.662;2023-02-28T08:55:32;15.27;;;10.63;;
31378;SDS011;61664;48.112;11.662;2023-02-28T08:57:59;14.05;;;10.23;;
31378;SDS011;61664;48.112;11.662;2023-02-28T09:00:27;14.65;;;10.85;;
31378;SDS011;61664;48.112;11.662;2023-02-28T09:02:54;14.10;;;9.88;;
31378;SDS011;61664;48.112;11.662;2023-02-28T09:05:24;17.20;;;11.80;;
31378;SDS011;61664;48.112;11.662;2023-02-28T09:07:51;16.38;;;11.45;;
31378;SDS011;61664;48.112;11.662;2023-02-28T09:10:18;15.93;;;10.82;;
31378;SDS011;61664;48.112;11.662;2023-02-28T09:12:45;13.90;;;10.13;;
31378;SDS011;61664;48.112;11.662;2023-02-28T09:15:13;14.75;;;10.43;;
31378;SDS011;61664;48.112;11.662;2023-02-28T09:17:40;12.43;;;9.73;;
31378;SDS011;61664;48.112;11.662;2023-02-28T09:20:08;14.27;;;10.02;;
31378;SDS011;61664;48.112;11.662;2023-02-28T09:22:36;12.93;;;9.63;;
31378;SDS011;61664;48.112;11.662;2023-02-28T09:25:03;14.70;;;9.82;;
31378;SDS011;61664;48.112;11.662;2023-02-28T09:27:31;13.07;;;10.02;;
31378;SDS011;61664;48.112;11.662;2023-02-28T09:29:58;11.88;;;9.60;;
31378;SDS011;61664;48.112;11.662;2023-02-28T09:32:24;12.55;;;10.02;;
31378;SDS011;61664;48.112;11.662;2023-02-28T09:34:51;16.33;;;11.30;;
31378;SDS011;61664;48.112;11.662;2023-02-28T09:37:19;15.95;;;11.18;;
31378;SDS011;61664;48.112;11.662;2023-02-28T09:39:45;14.00;;;10.52;;
31378;SDS011;61664;48.112;11.662;2023-02-28T09:42:21;14.05;;;10.70;;
31378;SDS011;61664;48.112;11.662;2023-02-28T09:44:56;16.02;;;11.05;;
31378;SDS011;61664;48.112;11.662;2023-02-28T09:47:34;13.60;;;10.60;;
31378;SDS011;61664;48.112;11.662;2023-02-28T09:52:54;17.10;;;11.82;;
31378;SDS011;61664;48.112;11.662;2023-02-28T09:58:16;16.42;;;10.43;;
31378;SDS011;61664;48.112;11.662;2023-02-28T10:01:05;17.10;;;11.52;;
31378;SDS011;61664;48.112;11.662;2023-02-28T10:06:40;12.68;;;10.25;;
31378;SDS011;61664;48.112;11.662;2023-02-28T10:09:17;18.00;;;11.80;;
31378;SDS011;61664;48.112;11.662;2023-02-28T10:11:50;13.57;;;11.18;;
31378;SDS011;61664;48.112;11.662;2023-02-28T10:14:24;14.43;;;10.63;;
31378;SDS011;61664;48.112;11.662;2023-02-28T10:17:03;16.75;;;12.30;;
31378;SDS011;61664;48.112;11.662;2023-02-28T10:24:55;14.88;;;9.63;;
31378;SDS011;61664;48.112;11.662;2023-02-28T10:27:32;15.13;;;10.52;;
31378;SDS011;61664;48.112;11.662;2023-02-28T10:30:00;16.13;;;11.25;;
31378;SDS011;61664;48.112;11.662;2023-02-28T10:32:30;17.15;;;11.93;;
31378;SDS011;61664;48.112;11.662;2023-02-28T10:37:41;15.38;;;10.80;;
31378;SDS011;61664;48.112;11.662;2023-02-28T10:45:27;15.65;;;11.30;;
31378;SDS011;61664;48.112;11.662;2023-02-28T10:48:02;15.20;;;11.02;;
31378;SDS011;61664;48.112;11.662;2023-02-28T10:50:51;12.50;;;9.70;;
31378;SDS011;61664;48.112;11.662;2023-02-28T10:58:31;15.15;;;11.55;;
31378;SDS011;61664;48.112;11.662;2023-02-28T11:01:15;14.15;;;11.02;;
31378;SDS011;61664;48.112;11.662;2023-02-28T11:03:48;13.43;;;10.65;;
31378;SDS011;61664;48.112;11.662;2023-02-28T11:06:21;13.95;;;10.77;;
31378;SDS011;61664;48.112;11.662;2023-02-28T11:09:02;16.50;;;10.90;;
31378;SDS011;61664;48.112;11.662;2023-02-28T11:11:42;14.90;;;10.50;;
31378;SDS011;61664;48.112;11.662;2023-02-28T11:14:26;13.45;;;9.60;;
31378;SDS011;61664;48.112;11.662;2023-02-28T11:17:14;13.68;;;10.57;;
31378;SDS011;61664;48.112;11.662;2023-02-28T11:19:52;15.10;;;10.43;;
31378;SDS011;61664;48.112;11.662;2023-02-28T11:22:24;12.82;;;10.10;;
31378;SDS011;61664;48.112;11.662;2023-02-28T11:24:59;11.85;;;9.73;;
31378;SDS011;61664;48.112;11.662;2023-02-28T11:27:43;12.10;;;10.18;;
31378;SDS011;61664;48.112;11.662;2023-02-28T11:33:00;12.57;;;9.77;;
31378;SDS011;61664;48.112;11.662;2023-02-28T11:36:15;13.27;;;10.10;;
31378;SDS011;61664;48.112;11.662;2023-02-28T11:38:53;12.45;;;9.35;;
31378;SDS011;61664;48.112;11.662;2023-02-28T11:56:33;13.65;;;10.00;;
31378;SDS011;61664;48.112;11.662;2023-02-28T12:10:23;11.98;;;10.13;;
31378;SDS011;61664;48.112;11.662;2023-02-28T12:13:04;13.65;;;10.60;;
31378;SDS011;61664;48.112;11.662;2023-02-28T12:16:49;13.73;;;10.32;;
31378;SDS011;61664;48.112;11.662;2023-02-28T12:18:56;11.88;;;10.50;;
31378;SDS011;61664;48.112;11.662;2023-02-28T12:27:34;14.95;;;11.80;;
31378;SDS011;61664;48.112;11.662;2023-02-28T12:30:27;13.30;;;10.98;;
31378;SDS011;61664;48.112;11.662;2023-02-28T12:33:08;12.77;;;10.23;;
31378;SDS011;61664;48.112;11.662;2023-02-28T12:35:51;11.77;;;9.90;;
31378;SDS011;61664;48.112;11.662;2023-02-28T12:38:28;11.98;;;10.30;;
31378;SDS011;61664;48.112;11.662;2023-02-28T12:41:18;11.70;;;9.75;;
31378;SDS011;61664;48.112;11.662;2023-02-28T12:44:11;12.30;;;10.07;;
31378;SDS011;61664;48.112;11.662;2023-02-28T12:46:45;13.32;;;11.20;;
31378;SDS011;61664;48.112;11.662;2023-02-28T12:49:21;14.40;;;11.23;;
31378;SDS011;61664;48.112;11.662;2023-02-28T12:51:59;11.23;;;10.00;;
31378;SDS011;61664;48.112;11.662;2023-02-28T12:54:35;13.15;;;10.52;;
31378;SDS011;61664;48.112;11.662;2023-02-28T12:57:15;12.48;;;9.77;;
31378;SDS011;61664;48.112;11.662;2023-02-28T13:00:00;10.52;;;9.35;;
31378;SDS011;61664;48.112;11.662;2023-02-28T13:14:42;13.15;;;10.68;;
31378;SDS011;61664;48.112;11.662;2023-02-28T13:19:44;13.48;;;11.07;;
31378;SDS011;61664;48.112;11.662;2023-02-28T13:27:49;11.77;;;9.35;;
31378;SDS011;61664;48.112;11.662;2023-02-28T13:38:56;11.00;;;9.85;;
31378;SDS011;61664;48.112;11.662;2023-02-28T13:51:56;11.88;;;9.60;;
31378;SDS011;61664;48.112;11.662;2023-02-28T14:05:34;9.73;;;7.43;;
31378;SDS011;61664;48.112;11.662;2023-02-28T14:08:06;10.88;;;9.63;;
31378;SDS011;61664;48.112;11.662;2023-02-28T14:10:50;11.95;;;10.00;;
31378;SDS011;61664;48.112;11.662;2023-02-28T14:13:41;10.75;;;9.48;;
31378;SDS011;61664;48.112;11.662;2023-02-28T14:16:14;12.07;;;9.57;;
31378;SDS011;61664;48.112;11.662;2023-02-28T14:19:10;10.05;;;8.77;;
31378;SDS011;61664;48.112;11.662;2023-02-28T14:27:58;11.70;;;9.20;;
31378;SDS011;61664;48.112;11.662;2023-02-28T14:31:04;10.35;;;8.50;;
31378;SDS011;61664;48.112;11.662;2023-02-28T14:34:04;10.98;;;9.25;;
31378;SDS011;61664;48.112;11.662;2023-02-28T14:36:42;9.97;;;8.23;;
31378;SDS011;61664;48.112;11.662;2023-02-28T14:39:24;10.80;;;9.00;;
31378;SDS011;61664;48.112;11.662;2023-02-28T14:41:53;10.65;;;8.93;;
31378;SDS011;61664;48.112;11.662;2023-02-28T14:44:24;11.90;;;9.32;;
31378;SDS011;61664;48.112;11.662;2023-02-28T14:46:53;12.07;;;9.73;;
31378;SDS011;61664;48.112;11.662;2023-02-28T14:49:31;10.98;;;9.20;;
31378;SDS011;61664;48.112;11.662;2023-02-28T14:54:43;11.73;;;9.05;;
31378;SDS011;61664;48.112;11.662;2023-02-28T14:57:22;10.15;;;8.75;;
31378;SDS011;61664;48.112;11.662;2023-02-28T14:59:57;15.05;;;9.10;;
31378;SDS011;61664;48.112;11.662;2023-02-28T15:02:31;9.43;;;8.45;;
31378;SDS011;61664;48.112;11.662;2023-02-28T15:07:44;10.68;;;9.43;;
31378;SDS011;61664;48.112;11.662;2023-02-28T15:13:10;15.20;;;10.63;;
31378;SDS011;61664;48.112;11.662;2023-02-28T15:15:47;10.43;;;8.63;;
31378;SDS011;61664;48.112;11.662;2023-02-28T15:18:33;10.63;;;9.43;;
31378;SDS011;61664;48.112;11.662;2023-02-28T15:21:27;9.23;;;8.30;;
31378;SDS011;61664;48.112;11.662;2023-02-28T15:24:06;10.02;;;9.02;;
31378;SDS011;61664;48.112;11.662;2023-02-28T15:26:45;10.18;;;8.95;;
31378;SDS011;61664;48.112;11.662;2023-02-28T15:29:20;11.05;;;8.23;;
31378;SDS011;61664;48.112;11.662;2023-02-28T15:31:55;8.65;;;7.53;;
31378;SDS011;61664;48.112;11.662;2023-02-28T15:34:38;8.95;;;8.10;;
31378;SDS011;61664;48.112;11.662;2023-02-28T15:40:11;9.70;;;7.43;;
31378;SDS011;61664;48.112;11.662;2023-02-28T15:43:04;8.23;;;7.32;;
31378;SDS011;61664;48.112;11.662;2023-02-28T15:45:34;8.75;;;7.88;;
31378;SDS011;61664;48.112;11.662;2023-02-28T15:51:01;9.07;;;8.18;;
31378;SDS011;61664;48.112;11.662;2023-02-28T15:53:46;9.77;;;8.57;;
31378;SDS011;61664;48.112;11.662;2023-02-28T15:56:24;8.55;;;7.70;;
31378;SDS011;61664;48.112;11.662;2023-02-28T15:59:05;9.02;;;8.13;;
31378;SDS011;61664;48.112;11.662;2023-02-28T16:01:39;9.40;;;7.80;;
31378;SDS011;61664;48.112;11.662;2023-02-28T16:04:11;10.35;;;8.30;;
31378;SDS011;61664;48.112;11.662;2023-02-28T16:06:45;10.13;;;8.68;;
31378;SDS011;61664;48.112;11.662;2023-02-28T16:09:28;9.73;;;8.73;;
31378;SDS011;61664;48.112;11.662;2023-02-28T16:12:00;12.57;;;9.63;;
31378;SDS011;61664;48.112;11.662;2023-02-28T16:14:29;10.93;;;8.90;;
31378;SDS011;61664;48.112;11.662;2023-02-28T16:17:04;10.63;;;8.73;;
31378;SDS011;61664;48.112;11.662;2023-02-28T16:19:39;12.95;;;10.07;;
31378;SDS011;61664;48.112;11.662;2023-02-28T16:22:07;13.05;;;9.63;;
31378;SDS011;61664;48.112;11.662;2023-02-28T16:24:35;13.38;;;9.73;;
31378;SDS011;61664;48.112;11.662;2023-02-28T16:27:03;14.80;;;10.43;;
31378;SDS011;61664;48.112;11.662;2023-02-28T16:29:31;27.58;;;13.30;;
31378;SDS011;61664;48.112;11.662;2023-02-28T16:32:01;23.15;;;13.98;;
31378;SDS011;61664;48.112;11.662;2023-02-28T16:34:31;26.23;;;14.55;;
31378;SDS011;61664;48.112;11.662;2023-02-28T16:36:58;19.17;;;11.20;;
31378;SDS011;61664;48.112;11.662;2023-02-28T16:39:25;13.23;;;9.80;;
31378;SDS011;61664;48.112;11.662;2023-02-28T16:41:52;13.57;;;10.00;;
31378;SDS011;61664;48.112;11.662;2023-02-28T16:44:23;12.00;;;9.38;;
31378;SDS011;61664;48.112;11.662;2023-02-28T16:47:01;9.77;;;8.32;;
31378;SDS011;61664;48.112;11.662;2023-02-28T16:49:30;10.27;;;8.70;;
31378;SDS011;61664;48.112;11.662;2023-02-28T16:51:57;12.10;;;9.10;;
31378;SDS011;61664;48.112;11.662;2023-02-28T16:54:24;13.38;;;9.57;;
31378;SDS011;61664;48.112;11.662;2023-02-28T16:56:51;12.57;;;9.88;;
31378;SDS011;61664;48.112;11.662;2023-02-28T16:59:22;13.70;;;10.50;;
31378;SDS011;61664;48.112;11.662;2023-02-28T17:01:53;12.50;;;10.18;;
31378;SDS011;61664;48.112;11.662;2023-02-28T17:04:24;12.57;;;8.77;;
31378;SDS011;61664;48.112;11.662;2023-02-28T17:06:53;15.30;;;9.02;;
31378;SDS011;61664;48.112;11.662;2023-02-28T17:09:21;16.35;;;10.68;;
31378;SDS011;61664;48.112;11.662;2023-02-28T17:12:05;10.95;;;8.68;;
31378;SDS011;61664;48.112;11.662;2023-02-28T17:14:33;10.27;;;8.55;;
31378;SDS011;61664;48.112;11.662;2023-02-28T17:17:00;11.93;;;9.40;;
31378;SDS011;61664;48.112;11.662;2023-02-28T17:19:27;15.55;;;10.63;;
31378;SDS011;61664;48.112;11.662;2023-02-28T17:21:54;12.20;;;9.55;;
31378;SDS011;61664;48.112;11.662;2023-02-28T17:24:21;13.93;;;11.07;;
31378;SDS011;61664;48.112;11.662;2023-02-28T17:26:56;20.60;;;12.43;;
31378;SDS011;61664;48.112;11.662;2023-02-28T17:29:24;18.75;;;11.57;;
31378;SDS011;61664;48.112;11.662;2023-02-28T17:31:51;13.35;;;9.88;;
31378;SDS011;61664;48.112;11.662;2023-02-28T17:34:18;16.75;;;11.05;;
31378;SDS011;61664;48.112;11.662;2023-02-28T17:36:47;15.63;;;10.77;;
31378;SDS011;61664;48.112;11.662;2023-02-28T17:39:16;14.95;;;10.00;;
31378;SDS011;61664;48.112;11.662;2023-02-28T17:41:54;14.55;;;11.05;;
31378;SDS011;61664;48.112;11.662;2023-02-28T17:44:22;16.90;;;11.88;;